Time;durP1;ratioP1;P1;durP2;ratioP2;P2;SDS_P1;SDS_P2;PMS_P1;PMS_P2;Temp;Humidity;BMP_temperature;BMP_pressure;BME280_temperature;BME280_humidity;BME280_pressure;Samples;Min_cycle;Max_cycle;Signal;HPM_P1;HPM_P2
2022/10/07 00:00:16;;;;;;;10.63;9.90;;;16.00;37.60;;;;;;5028370;28;20226;-56
2022/10/07 00:02:42;;;;;;;9.70;9.20;;;16.00;38.00;;;;;;5025833;28;20334;-55
2022/10/07 00:05:08;;;;;;;9.90;9.37;;;16.00;38.00;;;;;;5029117;28;20227;-54
2022/10/07 00:07:34;;;;;;;11.70;10.93;;;16.00;38.20;;;;;;5027704;28;20456;-53
2022/10/07 00:10:00;;;;;;;11.70;10.60;;;15.90;38.10;;;;;;5027020;28;20449;-53
2022/10/07 00:12:26;;;;;;;10.63;9.97;;;15.90;38.40;;;;;;5027061;28;20593;-54
2022/10/07 00:14:51;;;;;;;10.10;9.60;;;16.00;38.40;;;;;;5026411;28;20238;-54
2022/10/07 00:17:17;;;;;;;10.87;10.07;;;15.90;38.50;;;;;;5027828;28;20453;-55
2022/10/07 00:19:43;;;;;;;10.43;9.93;;;16.00;38.30;;;;;;5025703;28;20219;-55
2022/10/07 00:22:08;;;;;;;10.10;9.50;;;16.00;38.10;;;;;;5028867;28;20698;-55
2022/10/07 00:24:34;;;;;;;10.17;9.37;;;15.90;38.10;;;;;;5025306;28;20223;-55
2022/10/07 00:27:00;;;;;;;10.40;9.70;;;15.90;38.00;;;;;;5028483;28;20254;-55
2022/10/07 00:29:25;;;;;;;10.90;10.30;;;16.00;38.00;;;;;;5026904;28;20739;-55
2022/10/07 00:31:51;;;;;;;10.50;9.93;;;16.00;37.70;;;;;;5025089;28;20640;-54
2022/10/07 00:34:17;;;;;;;12.27;11.30;;;16.00;36.80;;;;;;5029021;28;20230;-55
2022/10/07 00:36:43;;;;;;;10.37;9.57;;;16.00;36.80;;;;;;5025851;28;20516;-54
2022/10/07 00:39:13;;;;;;;9.63;9.13;;;15.90;36.70;;;;;;5027229;28;20246;-53
2022/10/07 00:41:51;;;;;;;10.47;9.90;;;15.90;36.70;;;;;;5027563;28;20782;-53
2022/10/07 00:44:35;;;;;;;10.90;10.10;;;15.90;36.70;;;;;;5026151;28;20504;-59
2022/10/07 00:47:28;;;;;;;11.20;10.40;;;15.90;36.70;;;;;;5024584;28;20453;-59
2022/10/07 00:50:09;;;;;;;10.77;10.27;;;15.80;36.60;;;;;;5026446;28;20816;-59
2022/10/07 00:52:39;;;;;;;11.90;11.10;;;15.80;36.60;;;;;;5025736;28;21129;-59
2022/10/07 00:55:10;;;;;;;10.80;10.30;;;15.80;36.70;;;;;;5027353;28;20452;-59
2022/10/07 00:57:38;;;;;;;10.57;10.07;;;15.80;36.60;;;;;;5026887;28;20459;-54
2022/10/07 01:00:05;;;;;;;10.03;9.60;;;15.80;36.60;;;;;;5026806;28;20506;-54
2022/10/07 01:02:31;;;;;;;10.67;9.97;;;15.80;36.60;;;;;;5025771;28;20492;-54
2022/10/07 01:04:58;;;;;;;10.37;9.77;;;15.80;36.60;;;;;;5027424;28;20945;-54
2022/10/07 01:07:25;;;;;;;11.07;10.37;;;15.80;36.60;;;;;;5024085;28;20873;-54
2022/10/07 01:09:53;;;;;;;10.60;10.00;;;15.80;36.60;;;;;;5025625;28;20441;-54
2022/10/07 01:12:39;;;;;;;10.70;10.00;;;15.80;36.60;;;;;;5025901;28;20534;-53
2022/10/07 01:15:23;;;;;;;11.60;10.90;;;15.90;36.70;;;;;;5024905;28;20553;-55
2022/10/07 01:18:14;;;;;;;11.20;10.70;;;15.80;36.60;;;;;;5026158;28;21028;-55
2022/10/07 01:20:59;;;;;;;10.73;10.23;;;15.80;36.60;;;;;;5024553;28;20475;-56
2022/10/07 01:23:58;;;;;;;11.07;10.47;;;15.80;36.60;;;;;;5023876;28;20449;-54
2022/10/07 01:26:32;;;;;;;11.40;10.60;;;15.80;36.60;;;;;;5025591;28;20464;-52
2022/10/07 01:29:02;;;;;;;12.23;11.43;;;15.80;36.60;;;;;;5025048;28;20476;-55
2022/10/07 01:31:47;;;;;;;11.60;10.80;;;15.80;36.60;;;;;;5026099;28;20495;-55
2022/10/07 01:34:14;;;;;;;11.33;10.63;;;15.80;36.60;;;;;;5025269;28;20439;-53
2022/10/07 01:36:41;;;;;;;10.80;10.30;;;15.80;36.60;;;;;;5026424;28;20465;-53
2022/10/07 01:39:11;;;;;;;10.73;10.23;;;15.80;36.60;;;;;;5026244;28;20458;-54
2022/10/07 01:41:38;;;;;;;11.30;10.60;;;15.80;36.60;;;;;;5025102;28;20453;-54
2022/10/07 01:44:06;;;;;;;11.00;10.50;;;15.80;36.60;;;;;;5028151;28;20449;-54
2022/10/07 01:46:36;;;;;;;11.37;10.67;;;15.70;36.50;;;;;;5030342;28;20811;-55
2022/10/07 01:49:05;;;;;;;10.27;9.53;;;15.80;36.60;;;;;;5027356;28;20579;-55
2022/10/07 01:51:35;;;;;;;10.37;9.73;;;15.80;36.60;;;;;;5028349;28;20445;-55
2022/10/07 01:54:39;;;;;;;11.20;10.60;;;15.80;36.60;;;;;;5028948;28;20453;-53
2022/10/07 01:57:14;;;;;;;10.47;9.77;;;15.80;36.60;;;;;;5028618;28;20540;-54
2022/10/07 02:00:01;;;;;;;10.27;9.77;;;15.80;36.60;;;;;;5028163;28;20449;-54
2022/10/07 02:02:59;;;;;;;10.57;9.83;;;15.80;36.60;;;;;;5028642;28;20461;-55
2022/10/07 02:05:50;;;;;;;10.77;10.23;;;15.80;36.40;;;;;;4986254;28;20527;-54
2022/10/07 02:08:30;;;;;;;11.97;10.87;;;15.90;36.70;;;;;;5028719;28;20456;-54
2022/10/07 02:11:15;;;;;;;11.10;10.30;;;15.90;36.50;;;;;;5029100;28;20445;-55
2022/10/07 02:14:10;;;;;;;10.63;10.13;;;15.90;36.20;;;;;;5028442;28;21091;-54
2022/10/07 02:16:39;;;;;;;11.87;11.17;;;15.90;36.50;;;;;;5044476;28;21224;-56
2022/10/07 02:19:10;;;;;;;10.17;9.70;;;15.80;36.60;;;;;;5029366;28;21023;-55
2022/10/07 02:21:38;;;;;;;11.00;10.50;;;15.80;37.30;;;;;;5028719;28;21737;-53
2022/10/07 02:24:07;;;;;;;10.90;10.33;;;15.80;36.60;;;;;;5029496;28;20449;-56
2022/10/07 02:26:34;;;;;;;11.23;10.60;;;15.80;37.30;;;;;;5044968;28;20450;-55
2022/10/07 02:29:05;;;;;;;12.00;11.20;;;15.80;36.60;;;;;;5030289;28;20489;-55
2022/10/07 02:31:33;;;;;;;12.00;11.10;;;15.70;37.10;;;;;;5027386;28;20445;-55
2022/10/07 02:34:03;;;;;;;11.13;10.33;;;15.70;37.20;;;;;;5030652;28;20465;-54
2022/10/07 02:36:31;;;;;;;10.87;10.30;;;15.80;37.40;;;;;;5026074;28;20462;-54
2022/10/07 02:38:59;;;;;;;11.93;11.20;;;15.70;37.30;;;;;;5027499;28;20464;-55
2022/10/07 02:41:49;;;;;;;11.63;11.13;;;15.80;37.40;;;;;;5025008;28;20449;-54
2022/10/07 02:44:19;;;;;;;11.00;10.50;;;15.80;37.20;;;;;;5028520;28;20464;-56
2022/10/07 02:47:02;;;;;;;11.23;10.23;;;15.80;36.70;;;;;;5025347;28;20445;-55
2022/10/07 02:49:30;;;;;;;11.67;10.87;;;15.80;37.10;;;;;;5025724;28;20827;-54
2022/10/07 02:52:00;;;;;;;11.73;10.90;;;15.80;37.10;;;;;;5045567;28;20987;-54
2022/10/07 02:54:33;;;;;;;11.50;10.43;;;15.80;37.20;;;;;;5028038;28;21001;-54
2022/10/07 02:57:00;;;;;;;11.80;11.20;;;15.70;37.70;;;;;;5028661;28;20465;-56
2022/10/07 02:59:28;;;;;;;11.33;10.53;;;15.80;37.60;;;;;;5025676;28;20482;-55
2022/10/07 03:01:57;;;;;;;10.77;10.13;;;15.80;37.40;;;;;;5027911;28;20445;-59
2022/10/07 03:04:23;;;;;;;11.47;10.87;;;15.80;37.20;;;;;;5028557;28;20488;-60
2022/10/07 03:06:50;;;;;;;13.43;12.47;;;15.80;37.20;;;;;;5027721;28;20496;-60
2022/10/07 03:09:16;;;;;;;11.57;10.97;;;15.80;37.10;;;;;;5026318;28;20659;-60
2022/10/07 03:11:41;;;;;;;12.40;11.70;;;15.90;36.80;;;;;;5032848;28;20536;-60
2022/10/07 03:14:09;;;;;;;12.10;11.40;;;15.90;37.10;;;;;;5026189;28;20284;-60
2022/10/07 03:16:35;;;;;;;12.03;11.17;;;15.80;37.10;;;;;;5027828;28;20467;-60
2022/10/07 03:19:01;;;;;;;11.70;11.10;;;15.90;37.50;;;;;;5045436;28;20461;-60
2022/10/07 03:21:26;;;;;;;12.83;12.10;;;15.70;37.40;;;;;;5027279;28;21106;-59
2022/10/07 03:23:53;;;;;;;12.87;12.00;;;15.60;38.10;;;;;;5029046;28;20678;-59
2022/10/07 03:26:18;;;;;;;12.17;11.27;;;15.50;38.60;;;;;;5031419;28;20445;-59
2022/10/07 03:28:44;;;;;;;12.70;11.70;;;15.50;38.80;;;;;;5031497;28;20821;-59
2022/10/07 03:31:11;;;;;;;12.27;11.67;;;15.50;38.80;;;;;;5031462;28;20262;-59
2022/10/07 03:33:37;;;;;;;13.00;12.30;;;15.60;38.60;;;;;;5029243;28;20487;-59
2022/10/07 03:36:07;;;;;;;11.80;11.10;;;15.60;38.40;;;;;;5029142;28;20487;-59
2022/10/07 03:38:34;;;;;;;12.60;11.67;;;15.60;38.60;;;;;;5035662;28;20453;-59
2022/10/07 03:41:03;;;;;;;11.87;11.07;;;15.60;38.80;;;;;;5032982;28;20904;-60
2022/10/07 03:43:30;;;;;;;12.33;11.63;;;15.60;39.30;;;;;;5033870;28;20808;-60
2022/10/07 03:45:57;;;;;;;13.03;11.90;;;15.60;39.10;;;;;;5032096;28;20536;-59
2022/10/07 03:48:23;;;;;;;12.97;11.93;;;15.60;39.40;;;;;;5035838;28;20452;-55
2022/10/07 03:50:51;;;;;;;12.80;11.53;;;15.70;39.10;;;;;;5035248;28;20463;-55
2022/10/07 03:53:17;;;;;;;12.87;11.70;;;15.70;39.00;;;;;;5031922;28;20446;-59
2022/10/07 03:55:43;;;;;;;12.00;11.30;;;15.70;38.80;;;;;;5034906;28;20460;-59
2022/10/07 03:58:09;;;;;;;12.53;11.67;;;15.70;38.50;;;;;;5040313;28;20786;-60
2022/10/07 04:00:35;;;;;;;11.63;11.00;;;15.60;38.80;;;;;;5052787;28;20459;-60
2022/10/07 04:03:00;;;;;;;11.33;10.70;;;15.60;38.80;;;;;;5034448;28;20961;-60
2022/10/07 04:05:27;;;;;;;11.97;11.07;;;15.70;38.90;;;;;;5054624;28;20223;-60
2022/10/07 04:07:53;;;;;;;11.93;11.40;;;15.70;38.70;;;;;;5037722;28;20719;-58
2022/10/07 04:10:20;;;;;;;12.67;11.73;;;15.80;38.40;;;;;;5036807;28;20461;-60
2022/10/07 04:12:50;;;;;;;13.23;12.33;;;15.80;38.30;;;;;;5039528;28;20558;-60
2022/10/07 04:15:15;;;;;;;12.70;11.90;;;15.80;38.20;;;;;;5038022;28;20465;-60
2022/10/07 04:17:43;;;;;;;12.63;11.77;;;15.80;37.90;;;;;;5027913;28;20456;-60
2022/10/07 04:20:10;;;;;;;11.60;10.90;;;15.90;37.80;;;;;;5016632;28;20302;-60
2022/10/07 04:22:36;;;;;;;12.63;11.90;;;15.80;37.70;;;;;;5017568;28;21029;-60
2022/10/07 04:27:55;;;;;;;13.23;11.70;;;15.80;37.90;;;;;;5036696;28;20468;-59
2022/10/07 04:30:21;;;;;;;12.40;11.70;;;15.80;37.90;;;;;;5016321;28;20478;-59
2022/10/07 04:32:50;;;;;;;10.80;10.30;;;15.80;37.80;;;;;;5028804;28;20442;-60
2022/10/07 04:35:20;;;;;;;11.57;10.90;;;15.80;37.90;;;;;;5031949;28;20419;-60
2022/10/07 04:37:50;;;;;;;11.80;11.10;;;15.80;37.90;;;;;;5032339;28;20415;-60
2022/10/07 04:40:18;;;;;;;11.23;10.63;;;15.90;37.90;;;;;;5031528;28;20926;-60
2022/10/07 04:45:28;;;;;;;12.13;11.47;;;15.80;37.90;;;;;;5051218;28;20458;-60
2022/10/07 04:47:54;;;;;;;11.30;10.70;;;15.80;38.20;;;;;;5030093;28;20476;-60
2022/10/07 04:50:19;;;;;;;11.83;11.23;;;15.80;38.30;;;;;;5031395;28;20645;-56
2022/10/07 04:52:46;;;;;;;12.33;11.30;;;15.80;38.20;;;;;;5030131;28;20176;-56
2022/10/07 04:55:13;;;;;;;13.00;12.00;;;15.80;38.70;;;;;;5031719;28;20241;-56
2022/10/07 04:57:39;;;;;;;13.00;12.10;;;15.80;38.80;;;;;;5028559;28;20411;-56
2022/10/07 05:00:06;;;;;;;12.67;11.90;;;15.80;38.70;;;;;;5028389;28;20576;-56
2022/10/07 05:02:32;;;;;;;12.27;11.57;;;15.80;39.00;;;;;;5029299;28;20418;-57
2022/10/07 05:04:58;;;;;;;12.67;11.87;;;15.80;39.20;;;;;;5031434;28;20947;-56
2022/10/07 05:07:24;;;;;;;12.87;12.10;;;15.80;38.90;;;;;;5029536;28;20425;-56
2022/10/07 05:09:51;;;;;;;13.03;12.10;;;15.80;39.20;;;;;;5030559;28;20510;-57
2022/10/07 05:12:16;;;;;;;11.00;10.53;;;15.80;39.20;;;;;;5031855;28;20456;-55
2022/10/07 05:14:42;;;;;;;12.83;12.23;;;15.80;39.20;;;;;;5029204;28;20829;-57
2022/10/07 05:17:09;;;;;;;13.80;12.70;;;15.80;39.20;;;;;;5031153;28;20673;-57
2022/10/07 05:19:34;;;;;;;12.73;11.80;;;15.80;39.40;;;;;;5028055;28;20406;-56
2022/10/07 05:22:01;;;;;;;12.50;11.63;;;15.80;39.40;;;;;;5028898;28;20790;-56
2022/10/07 05:24:27;;;;;;;13.80;12.70;;;15.80;39.40;;;;;;5030312;28;20598;-55
2022/10/07 05:26:53;;;;;;;13.90;12.97;;;15.80;39.40;;;;;;5030842;28;20411;-56
2022/10/07 05:29:19;;;;;;;13.70;12.70;;;15.80;39.70;;;;;;5027106;28;20951;-56
2022/10/07 05:31:45;;;;;;;12.00;11.03;;;15.70;39.60;;;;;;5027888;28;20183;-57
2022/10/07 05:34:11;;;;;;;13.27;12.50;;;15.70;39.70;;;;;;5029102;28;20834;-56
2022/10/07 05:36:37;;;;;;;14.57;13.53;;;15.80;39.70;;;;;;5028937;28;20462;-60
2022/10/07 05:39:03;;;;;;;14.13;12.80;;;15.70;39.60;;;;;;5031045;28;20183;-59
2022/10/07 05:41:29;;;;;;;13.50;12.37;;;15.70;39.60;;;;;;5027603;28;20429;-60
2022/10/07 05:43:54;;;;;;;12.97;12.27;;;15.70;39.80;;;;;;5029887;28;20168;-60
2022/10/07 05:46:21;;;;;;;13.37;12.60;;;15.70;40.00;;;;;;5027113;28;20180;-59
2022/10/07 05:48:50;;;;;;;14.70;13.73;;;15.80;40.30;;;;;;5028584;28;20204;-62
2022/10/07 05:51:16;;;;;;;12.70;12.00;;;15.80;40.20;;;;;;5027738;28;20421;-60
2022/10/07 05:53:42;;;;;;;12.03;11.23;;;15.80;39.80;;;;;;5025864;28;20414;-60
2022/10/07 05:56:09;;;;;;;16.00;12.83;;;15.90;40.00;;;;;;5027044;28;20466;-59
2022/10/07 05:58:35;;;;;;;13.87;13.07;;;15.90;39.90;;;;;;5027083;28;20183;-58
2022/10/07 06:01:05;;;;;;;12.80;11.77;;;15.90;39.90;;;;;;5028460;28;20414;-61
2022/10/07 06:03:31;;;;;;;12.77;11.87;;;15.90;39.70;;;;;;5026376;28;20417;-51
2022/10/07 06:05:58;;;;;;;11.97;11.47;;;15.90;39.70;;;;;;5025667;28;20497;-54
2022/10/07 06:08:23;;;;;;;12.93;11.93;;;15.90;39.60;;;;;;5027603;28;20475;-54
2022/10/07 06:13:34;;;;;;;12.17;11.30;;;15.90;39.10;;;;;;5045882;28;20206;-55
2022/10/07 06:16:08;;;;;;;13.13;11.80;;;15.90;39.10;;;;;;5026743;28;20454;-54
2022/10/07 06:18:37;;;;;;;13.53;12.53;;;15.90;39.50;;;;;;5028578;28;20819;-53
2022/10/07 06:21:04;;;;;;;12.90;11.83;;;15.90;39.40;;;;;;5026848;28;20418;-54
2022/10/07 06:23:30;;;;;;;12.10;11.50;;;15.90;39.50;;;;;;5028023;28;20493;-55
2022/10/07 06:25:59;;;;;;;13.40;12.40;;;15.90;39.50;;;;;;5030298;28;20422;-55
2022/10/07 06:28:25;;;;;;;11.80;11.00;;;16.00;39.30;;;;;;5045451;28;20449;-55
2022/10/07 06:30:51;;;;;;;13.10;12.20;;;15.90;39.40;;;;;;5032555;28;20510;-54
2022/10/07 06:33:18;;;;;;;13.13;12.33;;;15.90;39.50;;;;;;5036095;28;20415;-55
2022/10/07 06:35:44;;;;;;;13.33;12.63;;;15.90;39.60;;;;;;5036334;28;20498;-57
2022/10/07 06:38:11;;;;;;;12.50;11.73;;;15.90;39.70;;;;;;5033553;28;20463;-54
2022/10/07 06:40:37;;;;;;;13.40;12.70;;;16.00;39.80;;;;;;5035560;28;20421;-53
2022/10/07 06:43:03;;;;;;;13.83;13.03;;;15.90;39.60;;;;;;5035445;28;20402;-54
2022/10/07 06:45:31;;;;;;;13.70;12.60;;;15.80;40.20;;;;;;5033540;28;20410;-55
2022/10/07 06:47:57;;;;;;;14.17;12.70;;;15.80;40.40;;;;;;5036918;28;20440;-53
2022/10/07 06:50:22;;;;;;;13.03;12.10;;;15.90;40.30;;;;;;5034580;28;20813;-54
2022/10/07 06:52:48;;;;;;;13.00;12.20;;;15.90;40.20;;;;;;5036748;28;20183;-54
2022/10/07 06:55:14;;;;;;;13.20;12.10;;;15.90;40.20;;;;;;5035772;28;20957;-56
2022/10/07 06:57:42;;;;;;;13.17;12.23;;;16.00;40.10;;;;;;5036266;28;20919;-54
2022/10/07 07:00:08;;;;;;;13.83;13.00;;;16.00;39.90;;;;;;5034392;28;20433;-56
2022/10/07 07:02:34;;;;;;;13.97;13.20;;;16.00;40.20;;;;;;5036224;28;20752;-59
2022/10/07 07:05:03;;;;;;;15.63;12.90;;;15.80;40.50;;;;;;5035771;28;20411;-60
2022/10/07 07:07:29;;;;;;;15.20;13.80;;;15.80;41.20;;;;;;5053154;28;20872;-60
2022/10/07 07:09:55;;;;;;;14.87;13.67;;;15.90;40.90;;;;;;5072702;28;20435;-60
2022/10/07 07:12:24;;;;;;;14.47;13.23;;;15.90;40.90;;;;;;5063161;28;20454;-56
2022/10/07 07:14:50;;;;;;;15.87;14.77;;;15.90;41.40;;;;;;5072681;28;20438;-56
2022/10/07 07:17:15;;;;;;;15.50;14.30;;;15.90;40.90;;;;;;5072587;28;20461;-56
2022/10/07 07:19:41;;;;;;;13.27;12.40;;;16.00;41.30;;;;;;5072640;28;20420;-56
2022/10/07 07:22:07;;;;;;;14.50;13.50;;;16.00;41.00;;;;;;5072112;28;20701;-55
2022/10/07 07:24:33;;;;;;;17.97;13.67;;;16.10;41.20;;;;;;5072580;28;20209;-55
2022/10/07 07:26:59;;;;;;;13.53;12.60;;;16.10;41.40;;;;;;5074242;28;20456;-55
2022/10/07 07:29:25;;;;;;;13.27;12.57;;;16.20;41.60;;;;;;5072408;28;20906;-59
2022/10/07 07:31:51;;;;;;;13.10;12.30;;;16.20;41.70;;;;;;5071750;28;20190;-60
2022/10/07 07:34:17;;;;;;;12.80;12.03;;;16.30;41.90;;;;;;5055904;28;20417;-56
2022/10/07 07:36:50;;;;;;;14.07;12.90;;;16.20;42.00;;;;;;5055939;28;20973;-55
2022/10/07 07:39:17;;;;;;;13.20;12.50;;;16.20;42.00;;;;;;5055730;28;20171;-56
2022/10/07 07:41:47;;;;;;;12.37;11.60;;;16.20;42.00;;;;;;5054466;28;20418;-56
2022/10/07 07:44:15;;;;;;;10.77;10.27;;;16.30;42.20;;;;;;5055485;28;20427;-57
2022/10/07 07:46:43;;;;;;;12.57;11.87;;;16.40;42.50;;;;;;5055641;28;20417;-57
2022/10/07 07:49:11;;;;;;;12.90;12.00;;;16.40;42.00;;;;;;5055158;28;20460;-56
2022/10/07 07:51:36;;;;;;;13.03;12.03;;;16.40;41.90;;;;;;5054943;28;20801;-59
2022/10/07 07:54:02;;;;;;;14.30;12.87;;;16.50;41.90;;;;;;5055627;28;20421;-59
2022/10/07 07:56:30;;;;;;;12.33;11.67;;;16.50;41.70;;;;;;5055331;28;20218;-59
2022/10/07 07:58:58;;;;;;;12.27;11.63;;;16.50;40.90;;;;;;5073385;28;20710;-60
2022/10/07 08:01:25;;;;;;;12.17;11.23;;;16.60;40.50;;;;;;5054506;28;20428;-60
2022/10/07 08:03:51;;;;;;;11.53;10.83;;;16.60;40.20;;;;;;5064047;28;21027;-59
2022/10/07 08:06:19;;;;;;;12.57;11.67;;;16.60;40.00;;;;;;5071843;28;20913;-59
2022/10/07 08:08:46;;;;;;;12.17;11.53;;;16.70;39.80;;;;;;5073142;28;20410;-59
2022/10/07 08:11:17;;;;;;;11.70;10.90;;;16.70;39.50;;;;;;5071008;28;20496;-59
2022/10/07 08:13:44;;;;;;;12.37;11.50;;;16.80;39.20;;;;;;5071532;28;20437;-59
2022/10/07 08:16:12;;;;;;;12.40;11.70;;;16.80;38.90;;;;;;5071459;28;20594;-59
2022/10/07 08:18:38;;;;;;;12.10;11.20;;;16.90;39.10;;;;;;5071734;28;20444;-59
2022/10/07 08:21:06;;;;;;;12.50;11.80;;;16.90;38.90;;;;;;5062882;28;20921;-59
2022/10/07 08:23:34;;;;;;;12.43;11.37;;;16.90;38.20;;;;;;5054590;28;20441;-59
2022/10/07 08:26:00;;;;;;;12.10;11.50;;;17.00;38.60;;;;;;5054812;28;20417;-56
2022/10/07 08:28:27;;;;;;;12.07;11.10;;;17.00;37.70;;;;;;5054599;28;20418;-55
2022/10/07 08:30:53;;;;;;;12.70;11.70;;;17.10;37.70;;;;;;5054146;28;20413;-53
2022/10/07 08:33:20;;;;;;;12.10;11.50;;;17.10;37.70;;;;;;5054494;28;20425;-56
2022/10/07 08:35:50;;;;;;;12.70;10.60;;;17.10;37.70;;;;;;5054338;28;20461;-56
2022/10/07 08:38:16;;;;;;;12.10;11.40;;;17.20;37.90;;;;;;5054580;28;20509;-56
2022/10/07 08:40:47;;;;;;;12.90;12.03;;;17.20;37.40;;;;;;5053938;28;20848;-55
2022/10/07 08:43:14;;;;;;;12.37;11.77;;;17.20;37.80;;;;;;5054363;28;20175;-55
2022/10/07 08:45:41;;;;;;;12.10;11.50;;;17.20;37.80;;;;;;5054265;28;20430;-55
2022/10/07 08:48:13;;;;;;;12.93;12.13;;;17.30;37.30;;;;;;5054515;28;20475;-54
2022/10/07 08:50:57;;;;;;;11.77;11.17;;;17.30;37.40;;;;;;5053832;28;20429;-56
2022/10/07 08:53:30;;;;;;;10.80;10.30;;;17.30;36.80;;;;;;5053283;28;20903;-55
2022/10/07 08:56:04;;;;;;;11.90;11.20;;;17.30;37.00;;;;;;5054096;28;20449;-55
2022/10/07 08:58:44;;;;;;;16.90;13.07;;;17.40;37.20;;;;;;5054162;28;20983;-54
2022/10/07 09:01:48;;;;;;;11.93;11.33;;;17.40;37.00;;;;;;5053795;28;20409;-54
2022/10/07 09:04:53;;;;;;;11.90;11.30;;;17.40;37.00;;;;;;5054168;28;20409;-54
2022/10/07 09:07:30;;;;;;;13.93;12.70;;;17.40;36.80;;;;;;5054067;28;20425;-54
2022/10/07 09:10:08;;;;;;;12.80;11.70;;;17.50;36.90;;;;;;5053512;28;20696;-54
2022/10/07 09:12:42;;;;;;;11.83;11.10;;;17.50;36.60;;;;;;5053390;28;20439;-59
2022/10/07 09:15:18;;;;;;;11.60;10.90;;;17.70;36.40;;;;;;5054906;28;20460;-59
2022/10/07 09:17:53;;;;;;;11.27;10.80;;;17.80;36.10;;;;;;5071871;28;20886;-59
2022/10/07 09:20:25;;;;;;;11.70;11.20;;;17.90;35.50;;;;;;5053315;28;20444;-59
2022/10/07 09:22:56;;;;;;;11.50;11.03;;;18.10;34.70;;;;;;5053917;28;20500;-54
2022/10/07 09:25:24;;;;;;;11.97;11.10;;;18.10;34.40;;;;;;5053910;28;20772;-55
2022/10/07 09:27:51;;;;;;;11.73;11.20;;;18.20;34.00;;;;;;5053790;28;20909;-55
2022/10/07 09:30:18;;;;;;;11.70;11.03;;;18.20;34.00;;;;;;5053073;28;20412;-55
2022/10/07 09:32:46;;;;;;;12.27;11.43;;;18.20;34.10;;;;;;5053853;28;20408;-55
2022/10/07 09:35:18;;;;;;;16.17;15.13;;;18.20;34.50;;;;;;5053466;28;20843;-58
2022/10/07 09:38:08;;;;;;;13.10;12.40;;;18.30;34.40;;;;;;5053794;28;20494;-59
2022/10/07 09:43:33;;;;;;;12.47;11.80;;;18.40;34.30;;;;;;5071821;28;20416;-58
2022/10/07 09:46:00;;;;;;;12.40;11.60;;;18.40;34.00;;;;;;5053724;28;20420;-58
2022/10/07 09:48:33;;;;;;;14.10;13.40;;;18.40;34.00;;;;;;5071494;28;20437;-58
2022/10/07 09:51:18;;;;;;;13.70;13.03;;;18.40;34.20;;;;;;5052850;28;20807;-58
2022/10/07 09:53:56;;;;;;;13.33;12.43;;;18.50;34.20;;;;;;5053599;28;20425;-60
2022/10/07 09:56:37;;;;;;;12.50;11.93;;;18.50;34.00;;;;;;5053475;28;20461;-60
2022/10/07 09:59:16;;;;;;;13.43;12.63;;;18.50;33.80;;;;;;5053763;28;20422;-60
2022/10/07 10:01:49;;;;;;;12.70;12.00;;;18.60;33.40;;;;;;5052809;28;20417;-60
2022/10/07 10:04:17;;;;;;;13.70;13.00;;;18.60;33.60;;;;;;5054501;28;20417;-60
2022/10/07 10:06:51;;;;;;;12.07;11.47;;;18.60;33.20;;;;;;5061415;28;20753;-60
2022/10/07 10:09:22;;;;;;;13.13;12.33;;;18.60;33.40;;;;;;5077401;28;20427;-59
2022/10/07 10:12:01;;;;;;;13.83;12.73;;;18.70;33.10;;;;;;5060519;28;20451;-60
2022/10/07 10:14:35;;;;;;;12.60;11.90;;;18.70;33.10;;;;;;5057085;28;20939;-60
2022/10/07 10:17:03;;;;;;;13.60;12.80;;;18.80;33.00;;;;;;5057178;28;20467;-60
2022/10/07 10:19:29;;;;;;;13.37;12.67;;;18.80;32.50;;;;;;5067709;28;20452;-60
2022/10/07 10:21:57;;;;;;;13.00;12.30;;;18.90;32.70;;;;;;5076005;28;20855;-60
2022/10/07 10:27:33;;;;;;;14.07;13.27;;;19.00;32.30;;;;;;5095564;28;20469;-57
2022/10/07 10:30:03;;;;;;;12.70;12.07;;;19.10;32.10;;;;;;5076585;28;20408;-57
2022/10/07 10:32:46;;;;;;;12.20;11.70;;;19.20;32.00;;;;;;5076945;28;20423;-59
2022/10/07 10:35:26;;;;;;;13.33;12.57;;;19.20;31.50;;;;;;5077023;28;21004;-60
2022/10/07 10:38:25;;;;;;;12.97;12.17;;;19.30;31.00;;;;;;5076830;28;20916;-60
2022/10/07 10:41:10;;;;;;;13.30;12.50;;;19.30;31.00;;;;;;5076367;28;20405;-60
2022/10/07 10:43:54;;;;;;;12.17;11.57;;;19.30;31.10;;;;;;5076684;28;20393;-60
2022/10/07 10:46:38;;;;;;;12.70;12.00;;;19.40;31.10;;;;;;5036665;28;20406;-60
2022/10/07 10:49:18;;;;;;;13.40;12.70;;;19.30;31.10;;;;;;5037253;28;20456;-60
2022/10/07 10:52:14;;;;;;;14.07;12.70;;;19.40;31.10;;;;;;5050254;28;20512;-60
2022/10/07 10:54:49;;;;;;;13.40;12.63;;;19.40;31.00;;;;;;5057267;28;20417;-60
2022/10/07 10:57:24;;;;;;;12.77;12.07;;;19.40;31.10;;;;;;5074777;28;20452;-60
2022/10/07 11:00:07;;;;;;;12.50;11.90;;;19.30;31.40;;;;;;5074398;28;20412;-60
2022/10/07 11:02:36;;;;;;;12.60;12.00;;;19.30;31.70;;;;;;5056635;28;20413;-60
2022/10/07 11:05:20;;;;;;;13.77;12.80;;;19.40;31.60;;;;;;5056765;28;20405;-60
2022/10/07 11:07:54;;;;;;;12.70;11.90;;;19.40;31.50;;;;;;5056365;28;20457;-60
2022/10/07 11:10:46;;;;;;;12.80;12.00;;;19.50;31.40;;;;;;5055944;28;20416;-60
2022/10/07 11:13:11;;;;;;;13.40;12.50;;;19.50;31.30;;;;;;5073068;28;21335;-60
2022/10/07 11:15:55;;;;;;;12.90;12.30;;;19.50;31.60;;;;;;5055549;28;21014;-60
2022/10/07 11:18:53;;;;;;;13.93;13.03;;;19.50;31.70;;;;;;5056450;28;20179;-60
2022/10/07 11:21:41;;;;;;;13.27;12.30;;;19.50;31.70;;;;;;5018195;28;20418;-60
2022/10/07 11:24:14;;;;;;;12.60;12.00;;;19.60;31.50;;;;;;5056276;28;20414;-60
2022/10/07 11:26:46;;;;;;;12.80;12.00;;;19.60;31.40;;;;;;5051200;28;20442;-60
2022/10/07 11:29:37;;;;;;;12.30;11.60;;;19.60;31.40;;;;;;5036308;28;20413;-60
2022/10/07 11:32:21;;;;;;;12.67;11.77;;;19.70;31.30;;;;;;5046695;28;20786;-61
2022/10/07 11:35:24;;;;;;;13.10;12.20;;;19.70;31.20;;;;;;5056071;28;20413;-59
2022/10/07 11:38:22;;;;;;;13.33;12.07;;;19.70;31.50;;;;;;5056174;28;20813;-59
2022/10/07 11:40:52;;;;;;;13.03;12.30;;;19.70;31.60;;;;;;5036980;28;20421;-58
2022/10/07 11:43:27;;;;;;;13.43;12.40;;;19.70;31.70;;;;;;5060175;28;20450;-59
2022/10/07 11:46:32;;;;;;;13.07;12.20;;;19.70;31.20;;;;;;5066764;28;20420;-58
2022/10/07 11:48:58;;;;;;;13.07;12.37;;;19.80;31.20;;;;;;4972084;28;20426;-60
2022/10/07 11:51:29;;;;;;;12.77;11.77;;;19.80;31.00;;;;;;5028145;28;20428;-59
2022/10/07 11:53:58;;;;;;;12.57;11.77;;;19.80;31.20;;;;;;5035943;28;20509;-58
2022/10/07 11:56:26;;;;;;;13.23;12.33;;;19.80;31.20;;;;;;5035351;28;20511;-59
2022/10/07 11:59:01;;;;;;;13.30;12.30;;;19.80;31.10;;;;;;5035399;28;20490;-59
2022/10/07 12:01:29;;;;;;;12.13;11.23;;;19.80;31.30;;;;;;5034218;28;20464;-59
2022/10/07 12:04:01;;;;;;;12.77;12.07;;;19.90;31.00;;;;;;5035339;28;20420;-59
2022/10/07 12:06:27;;;;;;;13.10;12.30;;;19.90;31.10;;;;;;5035127;28;20407;-61
2022/10/07 12:08:53;;;;;;;14.30;13.00;;;19.90;31.10;;;;;;5054424;28;20410;-59
2022/10/07 12:11:21;;;;;;;13.60;12.80;;;19.90;31.30;;;;;;5053535;28;20409;-59
2022/10/07 12:13:52;;;;;;;12.37;11.63;;;19.90;31.10;;;;;;5053046;28;20437;-59
2022/10/07 12:16:27;;;;;;;12.87;12.07;;;19.80;30.90;;;;;;5053116;28;20465;-59
2022/10/07 12:19:17;;;;;;;14.60;13.70;;;19.90;31.30;;;;;;5053696;28;20779;-59
2022/10/07 12:22:04;;;;;;;12.10;11.50;;;19.90;31.00;;;;;;5043360;28;20421;-59
2022/10/07 12:24:32;;;;;;;13.17;12.13;;;19.90;30.90;;;;;;5053840;28;20755;-59
2022/10/07 12:27:12;;;;;;;11.93;11.33;;;19.80;31.30;;;;;;5054370;28;20416;-60
2022/10/07 12:29:47;;;;;;;12.63;11.70;;;19.90;31.30;;;;;;5054909;28;20413;-59
2022/10/07 12:32:44;;;;;;;14.00;12.90;;;19.90;30.90;;;;;;5054106;28;20429;-59
2022/10/07 12:35:34;;;;;;;13.77;12.77;;;19.90;31.30;;;;;;5072482;28;20417;-59
2022/10/07 12:38:18;;;;;;;13.40;12.60;;;19.90;31.30;;;;;;5071354;28;20452;-59
2022/10/07 12:41:06;;;;;;;13.03;12.23;;;19.90;31.40;;;;;;5070738;28;20437;-59
2022/10/07 12:43:43;;;;;;;12.70;12.00;;;19.90;31.40;;;;;;5071030;28;20467;-58
2022/10/07 12:46:17;;;;;;;13.70;12.63;;;19.90;31.10;;;;;;5074502;28;20400;-59
2022/10/07 12:48:57;;;;;;;12.50;11.90;;;20.00;31.10;;;;;;5074322;28;20405;-60
2022/10/07 12:51:39;;;;;;;12.40;11.70;;;20.00;31.00;;;;;;5034353;28;20406;-59
2022/10/07 12:54:14;;;;;;;15.60;14.30;;;20.10;31.00;;;;;;5034904;28;20491;-60
2022/10/07 12:56:43;;;;;;;13.67;12.97;;;20.00;31.00;;;;;;5038057;28;20461;-60
2022/10/07 12:59:48;;;;;;;15.47;14.30;;;19.90;31.10;;;;;;5054595;28;20425;-60
2022/10/07 13:02:35;;;;;;;13.13;12.43;;;19.90;31.30;;;;;;5037502;28;20521;-60
2022/10/07 13:05:22;;;;;;;13.13;12.37;;;19.90;31.30;;;;;;5054543;28;20775;-60